createdAt,value
2023-02-05T00:01:41.773Z,99920.97
2023-02-05T00:04:09.742Z,99920.00
2023-02-05T00:06:37.691Z,99926.38
2023-02-05T00:09:05.776Z,99935.06
2023-02-05T00:11:33.729Z,99938.09
2023-02-05T00:14:01.671Z,99935.19
2023-02-05T00:16:31.055Z,99947.47
2023-02-05T00:18:59.020Z,99937.97
2023-02-05T00:21:26.968Z,99946.03
2023-02-05T00:23:54.948Z,99949.66
2023-02-05T00:26:22.982Z,99945.53
2023-02-05T00:28:50.946Z,99941.47
2023-02-05T00:31:20.912Z,99951.09
2023-02-05T00:33:50.556Z,99953.75
2023-02-05T00:36:18.709Z,99955.66
2023-02-05T00:38:46.668Z,99952.78
2023-02-05T00:41:14.729Z,99962.41
2023-02-05T00:43:42.869Z,99960.97
2023-02-05T00:46:11.344Z,99963.09
2023-02-05T00:48:39.377Z,99961.19
2023-02-05T00:51:08.737Z,99962.66
2023-02-05T00:53:36.697Z,99972.84
2023-02-05T00:56:04.880Z,99925.53
2023-02-05T00:58:33.141Z,99974.19
2023-02-05T01:01:01.049Z,99975.88
2023-02-05T01:03:28.969Z,99963.81
2023-02-05T01:05:57.130Z,99982.66
2023-02-05T01:08:26.464Z,99976.84
2023-02-05T01:10:54.440Z,99990.09
2023-02-05T01:13:22.378Z,99993.69
2023-02-05T01:15:50.322Z,99997.56
2023-02-05T01:18:18.252Z,100007.91
2023-02-05T01:20:46.197Z,100005.94
2023-02-05T01:23:14.154Z,100013.84
2023-02-05T01:25:43.456Z,100015.31
2023-02-05T01:28:11.447Z,100026.94
2023-02-05T01:30:39.580Z,100020.81
2023-02-05T01:33:07.682Z,100029.94
2023-02-05T01:35:35.983Z,100034.28
2023-02-05T01:38:04.071Z,100042.22
2023-02-05T01:40:31.980Z,100042.00
2023-02-05T01:43:01.270Z,100054.25
2023-02-05T01:46:10.525Z,100044.97
2023-02-05T01:48:40.533Z,100020.94
2023-02-05T01:51:09.450Z,100054.50
2023-02-05T01:53:37.660Z,100057.47
2023-02-05T01:56:07.648Z,100064.94
2023-02-05T01:58:38.827Z,100077.22
2023-02-05T02:01:07.044Z,100072.03
2023-02-05T02:03:34.996Z,100072.75
2023-02-05T02:06:05.010Z,100078.94
2023-02-05T02:08:33.746Z,100092.47
2023-02-05T02:11:02.170Z,100088.28
2023-02-05T02:13:30.093Z,100094.44
2023-02-05T02:15:59.460Z,100097.84
2023-02-05T02:18:27.794Z,100102.09
2023-02-05T02:21:26.230Z,100119.03
2023-02-05T02:24:03.419Z,100124.78
2023-02-05T02:26:43.659Z,100124.28
2023-02-05T02:29:13.926Z,100139.91
2023-02-05T02:31:43.750Z,100147.66
2023-02-05T02:34:13.184Z,100144.88
2023-02-05T02:36:44.382Z,100151.44
2023-02-05T02:39:14.291Z,100162.00
2023-02-05T02:41:44.283Z,100174.28
2023-02-05T02:44:14.584Z,100162.31
2023-02-05T02:46:43.900Z,100173.63
2023-02-05T02:49:21.220Z,100179.34
2023-02-05T02:51:49.210Z,100178.31
2023-02-05T02:54:18.518Z,100169.41
2023-02-05T02:56:46.536Z,100180.63
2023-02-05T02:59:16.710Z,100192.03
2023-02-05T03:01:53.374Z,100194.78
2023-02-05T03:04:24.866Z,100203.66
2023-02-05T03:06:53.423Z,100194.09
2023-02-05T03:09:23.915Z,100201.63
2023-02-05T03:11:51.918Z,100202.91
2023-02-05T03:14:21.198Z,100208.00
2023-02-05T03:16:49.168Z,100207.00
2023-02-05T03:19:17.136Z,100213.34
2023-02-05T03:21:46.952Z,100213.56
2023-02-05T03:24:14.917Z,100227.72
2023-02-05T03:26:43.242Z,100220.13
2023-02-05T03:29:12.632Z,100225.31
2023-02-05T03:31:46.134Z,100231.97
2023-02-05T03:34:20.827Z,100238.03
2023-02-05T03:36:54.040Z,100250.38
2023-02-05T03:39:26.231Z,100241.84
2023-02-05T03:41:58.800Z,100255.06
2023-02-05T03:44:38.001Z,100252.31
2023-02-05T03:47:09.414Z,100254.00
2023-02-05T03:49:43.349Z,100255.28
2023-02-05T03:52:13.637Z,100256.34
2023-02-05T03:54:44.268Z,100247.38
2023-02-05T03:57:15.025Z,100246.19
2023-02-05T03:59:42.965Z,100253.16
2023-02-05T04:02:12.343Z,100269.25
2023-02-05T04:04:40.432Z,100273.25
2023-02-05T04:07:08.381Z,100282.72
2023-02-05T04:09:36.326Z,100286.53
2023-02-05T04:12:04.276Z,100293.78
2023-02-05T04:14:32.180Z,100291.91
2023-02-05T04:17:00.092Z,100304.56
2023-02-05T04:19:29.537Z,100309.66
2023-02-05T04:21:57.465Z,100308.19
2023-02-05T04:24:26.048Z,100323.81
2023-02-05T04:26:53.976Z,100314.50
2023-02-05T04:29:21.911Z,100327.03
2023-02-05T04:31:49.983Z,100326.09
2023-02-05T04:34:18.016Z,100336.22
2023-02-05T04:36:47.342Z,100338.19
2023-02-05T04:39:15.300Z,100338.84
2023-02-05T04:41:43.207Z,100350.44
2023-02-05T04:44:11.124Z,100346.69
2023-02-05T04:46:39.103Z,100346.75
2023-02-05T04:49:07.006Z,100351.28
2023-02-05T04:51:34.946Z,100345.19
2023-02-05T04:54:04.380Z,100364.03
2023-02-05T04:56:32.346Z,100363.66
2023-02-05T04:59:00.256Z,100370.81
2023-02-05T05:01:28.204Z,100367.81
2023-02-05T05:03:56.159Z,100366.28
2023-02-05T05:06:24.096Z,100367.59
2023-02-05T05:08:52.043Z,100371.56
2023-02-05T05:11:21.388Z,100378.72
2023-02-05T05:13:49.821Z,100377.22
2023-02-05T05:16:17.857Z,100388.44
2023-02-05T05:18:45.850Z,100385.22
2023-02-05T05:21:13.831Z,100387.41
2023-02-05T05:23:41.797Z,100399.69
2023-02-05T05:26:10.549Z,100393.25
2023-02-05T05:28:39.977Z,100396.56
2023-02-05T05:31:08.706Z,100403.44
2023-02-05T05:33:36.769Z,100407.13
2023-02-05T05:36:05.208Z,100404.75
2023-02-05T05:38:33.123Z,100410.22
2023-02-05T05:41:18.581Z,100413.34
2023-02-05T05:43:47.987Z,100410.41
2023-02-05T05:46:16.474Z,100411.72
2023-02-05T05:48:44.481Z,100424.28
2023-02-05T05:51:12.412Z,100426.88
2023-02-05T05:53:40.341Z,100427.38
2023-02-05T05:56:08.527Z,100425.47
2023-02-05T05:58:36.449Z,100433.00
2023-02-05T06:01:06.122Z,100433.91
2023-02-05T06:03:34.073Z,100442.28
2023-02-05T06:06:02.439Z,100441.88
2023-02-05T06:08:30.380Z,100434.06
2023-02-05T06:10:58.487Z,100446.88
2023-02-05T06:13:26.472Z,100447.75
2023-02-05T06:15:55.278Z,100454.84
2023-02-05T06:18:24.807Z,100453.91
2023-02-05T06:20:52.930Z,100461.53
2023-02-05T06:23:20.891Z,100452.31
2023-02-05T06:25:48.870Z,100465.34
2023-02-05T06:28:16.832Z,100469.28
2023-02-05T06:30:44.829Z,100469.28
2023-02-05T06:33:12.998Z,100471.53
2023-02-05T06:35:42.496Z,100468.31
2023-02-05T06:38:10.469Z,100469.44
2023-02-05T06:40:38.390Z,100469.19
2023-02-05T06:43:06.310Z,100474.91
2023-02-05T06:45:34.485Z,100473.38
2023-02-05T06:48:02.641Z,100479.84
2023-02-05T06:50:30.603Z,100479.63
2023-02-05T06:52:59.937Z,100480.72
2023-02-05T06:55:27.903Z,100479.44
2023-02-05T06:57:55.850Z,100492.84
2023-02-05T07:00:24.108Z,100492.31
2023-02-05T07:02:53.207Z,100494.66
2023-02-05T07:05:21.252Z,100494.47
2023-02-05T07:07:49.988Z,100504.78
2023-02-05T07:10:20.113Z,100500.34
2023-02-05T07:12:48.074Z,100511.44
2023-02-05T07:15:16.090Z,100506.91
2023-02-05T07:17:44.051Z,100508.47
2023-02-05T07:20:12.650Z,100506.06
2023-02-05T07:22:40.626Z,100513.84
2023-02-05T07:25:09.317Z,100514.50
2023-02-05T07:27:38.661Z,100506.97
2023-02-05T07:30:07.705Z,100511.72
2023-02-05T07:32:35.640Z,100522.19
2023-02-05T07:35:03.958Z,100517.84
2023-02-05T07:37:31.937Z,100524.53
2023-02-05T07:39:59.918Z,100532.44
2023-02-05T07:42:28.597Z,100544.13
2023-02-05T07:44:58.832Z,100543.53
2023-02-05T07:47:26.866Z,100547.72
2023-02-05T07:49:54.813Z,100552.59
2023-02-05T07:52:22.739Z,100555.50
2023-02-05T07:54:50.716Z,100556.72
2023-02-05T07:57:18.694Z,100556.97
2023-02-05T07:59:46.688Z,100570.38
2023-02-05T08:02:16.016Z,100568.28
2023-02-05T08:04:43.979Z,100570.00
2023-02-05T08:07:12.880Z,100574.38
2023-02-05T08:09:40.839Z,100580.59
2023-02-05T08:12:08.924Z,100580.38
2023-02-05T08:14:36.909Z,100578.88
2023-02-05T08:17:06.095Z,100573.75
2023-02-05T08:19:35.488Z,100579.06
2023-02-05T08:22:03.456Z,100583.25
2023-02-05T08:24:32.630Z,100585.38
2023-02-05T08:27:00.599Z,100608.06
2023-02-05T08:29:28.547Z,100595.31
2023-02-05T08:31:56.671Z,100599.97
2023-02-05T08:34:24.644Z,100605.44
2023-02-05T08:36:53.988Z,100604.06
2023-02-05T08:39:21.916Z,100607.25
2023-02-05T08:41:49.894Z,100612.28
2023-02-05T08:44:17.850Z,100618.88
2023-02-05T08:46:50.186Z,100617.16
2023-02-05T08:49:18.588Z,100625.75
2023-02-05T08:51:46.504Z,100624.56
2023-02-05T08:54:15.845Z,100629.25
2023-02-05T08:56:44.264Z,100628.78
2023-02-05T08:59:12.577Z,100632.41
2023-02-05T09:01:41.564Z,100634.03
2023-02-05T09:04:09.562Z,100633.38
2023-02-05T09:06:37.536Z,100630.75
2023-02-05T09:09:05.499Z,100638.75
2023-02-05T09:11:34.844Z,100634.22
2023-02-05T09:14:02.827Z,100640.53
2023-02-05T09:16:30.806Z,100645.00
2023-02-05T09:18:59.139Z,100638.22
2023-02-05T09:21:27.228Z,100632.25
2023-02-05T09:23:55.514Z,100632.84
2023-02-05T09:26:23.444Z,100633.72
2023-02-05T09:28:52.771Z,100627.56
2023-02-05T09:31:21.866Z,100628.00
2023-02-05T09:33:49.879Z,100635.59
2023-02-05T09:36:18.468Z,100630.19
2023-02-05T09:38:46.626Z,100622.88
2023-02-05T09:41:19.067Z,100616.56
2023-02-05T09:43:49.680Z,100626.59
2023-02-05T09:46:22.932Z,100615.47
2023-02-05T09:48:52.511Z,100616.69
2023-02-05T09:51:23.004Z,100618.41
2023-02-05T09:53:55.054Z,100613.31
2023-02-05T09:56:23.033Z,100610.13
2023-02-05T09:58:52.348Z,100610.44
2023-02-05T10:01:25.393Z,100617.78
2023-02-05T10:03:55.982Z,100617.34
2023-02-05T10:06:37.240Z,100602.03
2023-02-05T10:09:09.506Z,100596.88
2023-02-05T10:11:40.411Z,100601.00
2023-02-05T10:14:13.047Z,100609.06
2023-02-05T10:17:01.205Z,100601.00
2023-02-05T10:19:47.964Z,100596.19
2023-02-05T10:22:18.754Z,100594.81
2023-02-05T10:25:06.743Z,100597.41
2023-02-05T10:27:38.921Z,100577.13
2023-02-05T10:30:08.378Z,100597.06
2023-02-05T10:32:43.027Z,100598.66
2023-02-05T10:35:18.428Z,100579.88
2023-02-05T10:37:48.548Z,100595.91
2023-02-05T10:40:17.726Z,100595.88
2023-02-05T10:42:46.389Z,100591.59
2023-02-05T10:45:19.457Z,100585.69
2023-02-05T10:48:17.737Z,100561.53
2023-02-05T10:50:50.840Z,100586.88
2023-02-05T10:53:20.554Z,100574.81
2023-02-05T10:55:48.487Z,100585.88
2023-02-05T10:58:36.914Z,100571.31
2023-02-05T11:01:05.083Z,100586.19
2023-02-05T11:03:34.627Z,100583.72
2023-02-05T11:06:03.351Z,100581.78
2023-02-05T11:08:36.115Z,100577.88
2023-02-05T11:11:04.170Z,100590.94
2023-02-05T11:13:32.182Z,100590.41
2023-02-05T11:16:00.729Z,100594.41
2023-02-05T11:18:29.898Z,100584.66
2023-02-05T11:21:00.180Z,100586.66
2023-02-05T11:23:30.948Z,100594.63
2023-02-05T11:26:00.094Z,100585.50
2023-02-05T11:28:29.019Z,100594.63
2023-02-05T11:30:57.340Z,100581.66
2023-02-05T11:33:27.743Z,100578.28
2023-02-05T11:35:57.573Z,100580.53
2023-02-05T11:38:31.162Z,100582.13
2023-02-05T11:40:59.778Z,100584.88
2023-02-05T11:43:29.718Z,100570.22
2023-02-05T11:45:58.189Z,100582.75
2023-02-05T11:48:30.487Z,100581.03
2023-02-05T11:50:58.478Z,100572.97
2023-02-05T11:53:27.767Z,100569.38
2023-02-05T11:55:56.998Z,100571.28
2023-02-05T11:58:36.175Z,100587.41
2023-02-05T12:01:07.054Z,100575.13
2023-02-05T12:03:35.456Z,100577.03
2023-02-05T12:06:13.423Z,100577.19
2023-02-05T12:08:46.299Z,100577.84
2023-02-05T12:11:29.791Z,100577.66
2023-02-05T12:14:03.253Z,100575.28
2023-02-05T12:16:46.298Z,100577.66
2023-02-05T12:19:17.997Z,100578.81
2023-02-05T12:21:49.749Z,100579.13
2023-02-05T12:24:40.337Z,100585.75
2023-02-05T12:27:10.800Z,100602.06
2023-02-05T12:29:47.953Z,100596.34
2023-02-05T12:32:20.265Z,100608.13
2023-02-05T12:34:58.243Z,100598.13
2023-02-05T12:37:29.955Z,100601.41
2023-02-05T12:40:02.516Z,100600.44
2023-02-05T12:42:33.088Z,100571.72
2023-02-05T12:45:07.827Z,100594.97
2023-02-05T12:47:46.317Z,100602.69
2023-02-05T12:50:21.295Z,100609.28
2023-02-05T12:52:57.199Z,100612.34
2023-02-05T12:55:34.490Z,100608.88
2023-02-05T12:58:03.209Z,100578.63
2023-02-05T13:00:33.948Z,100606.53
2023-02-05T13:03:07.104Z,100602.69
2023-02-05T13:05:36.311Z,100616.69
2023-02-05T13:08:06.875Z,100607.78
2023-02-05T13:10:41.314Z,100591.63
2023-02-05T13:13:12.569Z,100612.00
2023-02-05T13:15:41.900Z,100617.41
2023-02-05T13:18:13.981Z,100613.91
2023-02-05T13:21:00.247Z,100609.84
2023-02-05T13:23:45.915Z,100624.88
2023-02-05T13:26:34.454Z,100625.94
2023-02-05T13:29:04.056Z,100634.84
2023-02-05T13:31:32.857Z,100636.00
2023-02-05T13:34:03.868Z,100632.41
2023-02-05T13:37:15.475Z,100639.38
2023-02-05T13:40:02.390Z,100634.94
2023-02-05T13:42:53.814Z,100644.03
2023-02-05T13:45:44.125Z,100637.03
2023-02-05T13:48:38.157Z,100638.34
2023-02-05T13:51:43.133Z,100632.84
2023-02-05T13:54:52.554Z,100636.72
2023-02-05T13:57:46.177Z,100632.50
2023-02-05T14:00:14.643Z,100636.81
2023-02-05T14:02:43.362Z,100636.22
2023-02-05T14:05:13.588Z,100640.97
2023-02-05T14:07:45.886Z,100640.31
2023-02-05T14:10:26.046Z,100642.00
2023-02-05T14:12:55.376Z,100642.78
2023-02-05T14:15:25.997Z,100638.41
2023-02-05T14:17:55.339Z,100641.41
2023-02-05T14:20:38.497Z,100645.22
2023-02-05T14:23:13.912Z,100628.50
2023-02-05T14:26:04.320Z,100635.41
2023-02-05T14:28:47.064Z,100636.84
2023-02-05T14:31:49.077Z,100638.28
2023-02-05T14:34:52.145Z,100643.06
2023-02-05T14:37:35.359Z,100621.47
2023-02-05T14:40:22.704Z,100647.34
2023-02-05T14:42:53.261Z,100621.91
2023-02-05T14:45:24.356Z,100619.75
2023-02-05T14:47:52.305Z,100643.94
2023-02-05T14:50:21.802Z,100654.72
2023-02-05T14:52:51.061Z,100655.84
2023-02-05T14:55:21.465Z,100648.75
2023-02-05T14:57:50.859Z,100647.91
2023-02-05T15:00:26.939Z,100655.00
2023-02-05T15:03:22.550Z,100642.34
2023-02-05T15:05:54.282Z,100655.84
2023-02-05T15:08:25.316Z,100659.75
2023-02-05T15:10:55.362Z,100663.03
2023-02-05T15:13:24.892Z,100664.09
2023-02-05T15:16:24.815Z,100665.88
2023-02-05T15:18:52.945Z,100673.50
2023-02-05T15:21:27.660Z,100669.66
2023-02-05T15:24:00.411Z,100672.09
2023-02-05T15:26:31.880Z,100668.69
2023-02-05T15:29:03.465Z,100674.56
2023-02-05T15:31:35.830Z,100672.09
2023-02-05T15:34:08.113Z,100673.41
2023-02-05T15:36:37.822Z,100683.53
2023-02-05T15:39:10.928Z,100687.09
2023-02-05T15:41:38.868Z,100681.34
2023-02-05T15:44:18.454Z,100694.00
2023-02-05T15:46:47.800Z,100700.97
2023-02-05T15:49:15.747Z,100698.16
2023-02-05T15:51:43.697Z,100693.81
2023-02-05T15:54:18.540Z,100702.09
2023-02-05T15:56:48.367Z,100705.78
2023-02-05T15:59:17.820Z,100705.69
2023-02-05T16:01:48.060Z,100699.47
2023-02-05T16:04:19.413Z,100705.09
2023-02-05T16:06:47.363Z,100706.94
2023-02-05T16:09:19.179Z,100717.69
2023-02-05T16:11:48.176Z,100713.06
2023-02-05T16:14:17.365Z,100714.31
2023-02-05T16:16:50.766Z,100727.06
2023-02-05T16:19:20.174Z,100730.81
2023-02-05T16:21:49.624Z,100737.44
2023-02-05T16:24:24.012Z,100706.63
2023-02-05T16:26:53.480Z,100732.34
2023-02-05T16:29:25.898Z,100732.69
2023-02-05T16:32:05.647Z,100735.16
2023-02-05T16:34:33.676Z,100736.31
2023-02-05T16:37:03.508Z,100730.66
2023-02-05T16:39:35.423Z,100746.88
2023-02-05T16:42:04.805Z,100740.44
2023-02-05T16:44:33.813Z,100739.94
2023-02-05T16:47:13.449Z,100752.41
2023-02-05T16:49:42.110Z,100754.94
2023-02-05T16:52:28.702Z,100757.31
2023-02-05T16:54:56.665Z,100764.53
2023-02-05T16:57:29.667Z,100761.88
2023-02-05T16:59:59.664Z,100762.22
2023-02-05T17:02:32.218Z,100766.75
2023-02-05T17:05:01.507Z,100761.97
2023-02-05T17:07:29.571Z,100764.34
2023-02-05T17:10:16.776Z,100763.84
2023-02-05T17:12:49.017Z,100763.41
2023-02-05T17:15:44.396Z,100768.09
2023-02-05T17:18:27.748Z,100762.66
2023-02-05T17:21:23.162Z,100766.56
2023-02-05T17:23:51.334Z,100764.00
2023-02-05T17:26:19.360Z,100759.09
2023-02-05T17:28:47.708Z,100757.66
2023-02-05T17:31:17.202Z,100763.69
2023-02-05T17:33:47.936Z,100767.78
2023-02-05T17:36:16.442Z,100776.81
2023-02-05T17:38:44.669Z,100764.38
2023-02-05T17:41:34.161Z,100770.00
2023-02-05T17:44:02.169Z,100765.59
2023-02-05T17:46:30.139Z,100762.25
2023-02-05T17:48:59.429Z,100760.81
2023-02-05T17:51:27.502Z,100771.88
2023-02-05T17:53:55.633Z,100764.97
2023-02-05T17:56:23.739Z,100762.53
2023-02-05T17:58:52.784Z,100759.28
2023-02-05T18:01:21.905Z,100764.41
2023-02-05T18:03:49.988Z,100767.81
2023-02-05T18:06:19.846Z,100768.50
2023-02-05T18:08:48.087Z,100765.94
2023-02-05T18:11:16.145Z,100769.31
2023-02-05T18:13:44.240Z,100779.38
2023-02-05T18:16:12.602Z,100781.09
2023-02-05T18:18:40.746Z,100788.25
2023-02-05T18:21:08.765Z,100783.16
2023-02-05T18:23:38.216Z,100784.84
2023-02-05T18:26:06.464Z,100784.84
2023-02-05T18:28:34.474Z,100791.06
2023-02-05T18:31:03.429Z,100787.13
2023-02-05T18:33:31.510Z,100796.06
2023-02-05T18:36:01.278Z,100799.50
2023-02-05T18:38:30.550Z,100794.47
2023-02-05T18:41:07.038Z,100789.94
2023-02-05T18:43:36.371Z,100791.66
2023-02-05T18:46:08.137Z,100793.72
2023-02-05T18:48:36.333Z,100796.94
2023-02-05T18:51:08.097Z,100798.81
2023-02-05T18:53:36.166Z,100799.00
2023-02-05T18:56:07.147Z,100797.63
2023-02-05T18:58:35.260Z,100795.91
2023-02-05T19:01:09.148Z,100795.72
2023-02-05T19:03:38.941Z,100793.09
2023-02-05T19:06:07.356Z,100794.38
2023-02-05T19:08:35.448Z,100736.59
2023-02-05T19:11:08.623Z,100784.44
2023-02-05T19:13:37.321Z,100786.28
2023-02-05T19:16:07.067Z,100788.44
2023-02-05T19:18:35.210Z,100795.22
2023-02-05T19:21:08.268Z,100793.53
2023-02-05T19:23:36.958Z,100783.50
2023-02-05T19:26:05.499Z,100800.84
2023-02-05T19:28:34.826Z,100800.84
2023-02-05T19:31:04.098Z,100800.34
2023-02-05T19:33:32.489Z,100800.84
2023-02-05T19:36:00.520Z,100808.84
2023-02-05T19:38:28.561Z,100793.19
2023-02-05T19:40:56.517Z,100806.28
2023-02-05T19:43:24.438Z,100804.16
2023-02-05T19:45:53.779Z,100811.16
2023-02-05T19:48:21.751Z,100805.78
2023-02-05T19:50:49.737Z,100816.06
2023-02-05T19:53:18.511Z,100818.84
2023-02-05T19:55:46.576Z,100823.63
2023-02-05T19:58:14.741Z,100824.41
2023-02-05T20:00:42.663Z,100826.03
2023-02-05T20:03:12.170Z,100825.03
2023-02-05T20:05:40.140Z,100823.97
2023-02-05T20:08:08.164Z,100818.84
2023-02-05T20:10:36.373Z,100822.25
2023-02-05T20:13:04.558Z,100826.00
2023-02-05T20:15:32.471Z,100817.13
2023-02-05T20:18:00.440Z,100826.75
2023-02-05T20:20:33.901Z,100827.69
2023-02-05T20:23:02.081Z,100823.75
2023-02-05T20:25:30.055Z,100830.06
2023-02-05T20:27:58.051Z,100827.88
2023-02-05T20:30:43.417Z,100829.03
2023-02-05T20:33:11.345Z,100823.53
2023-02-05T20:35:40.635Z,100822.53
2023-02-05T20:38:08.565Z,100818.47
2023-02-05T20:40:36.807Z,100834.31
2023-02-05T20:43:07.108Z,100835.16
2023-02-05T20:45:35.071Z,100832.44
2023-02-05T20:48:03.091Z,100830.06
2023-02-05T20:50:31.051Z,100842.41
2023-02-05T20:53:00.378Z,100838.56
2023-02-05T20:55:28.303Z,100840.75
2023-02-05T20:57:56.361Z,100842.63
2023-02-05T21:00:26.482Z,100835.63
2023-02-05T21:02:54.508Z,100838.91
2023-02-05T21:05:22.425Z,100842.28
2023-02-05T21:07:51.251Z,100834.63
2023-02-05T21:10:22.281Z,100841.09
2023-02-05T21:12:50.280Z,100839.00
2023-02-05T21:15:18.444Z,100846.91
2023-02-05T21:17:46.362Z,100848.22
2023-02-05T21:20:14.357Z,100845.66
2023-02-05T21:22:42.372Z,100845.13
2023-02-05T21:25:10.337Z,100845.81
2023-02-05T21:27:40.229Z,100847.66
2023-02-05T21:30:10.316Z,100848.94
2023-02-05T21:32:38.259Z,100843.56
2023-02-05T21:35:06.748Z,100848.00
2023-02-05T21:37:34.723Z,100841.72
2023-02-05T21:40:09.207Z,100848.84
2023-02-05T21:42:37.340Z,100852.22
2023-02-05T21:45:07.540Z,100849.63
2023-02-05T21:47:35.502Z,100856.53
2023-02-05T21:50:03.412Z,100862.75
2023-02-05T21:52:31.351Z,100860.34
2023-02-05T21:54:59.296Z,100856.63
2023-02-05T21:57:27.268Z,100858.31
2023-02-05T21:59:55.333Z,100861.91
2023-02-05T22:02:24.746Z,100861.72
2023-02-05T22:04:52.847Z,100860.16
2023-02-05T22:07:20.828Z,100868.06
2023-02-05T22:09:48.798Z,100873.56
2023-02-05T22:12:17.950Z,100872.84
2023-02-05T22:14:45.864Z,100874.69
2023-02-05T22:17:13.819Z,100865.50
2023-02-05T22:19:43.420Z,100869.31
2023-02-05T22:22:11.368Z,100868.75
2023-02-05T22:24:39.321Z,100870.72
2023-02-05T22:27:07.388Z,100875.31
2023-02-05T22:29:35.326Z,100883.41
2023-02-05T22:32:03.352Z,100883.41
2023-02-05T22:34:31.346Z,100883.41
2023-02-05T22:37:00.728Z,100881.56
2023-02-05T22:39:28.699Z,100886.84
2023-02-05T22:41:56.612Z,100880.16
2023-02-05T22:44:24.571Z,100886.84
2023-02-05T22:46:52.521Z,100892.09
2023-02-05T22:49:20.477Z,100888.81
2023-02-05T22:51:48.426Z,100897.38
2023-02-05T22:54:17.712Z,100891.03
2023-02-05T22:56:45.828Z,100887.25
2023-02-05T22:59:13.874Z,100888.13
2023-02-05T23:01:41.855Z,100888.41
2023-02-05T23:04:10.071Z,100872.81
2023-02-05T23:06:38.995Z,100881.00
2023-02-05T23:09:07.983Z,100878.13
2023-02-05T23:11:37.318Z,100883.47
2023-02-05T23:14:05.791Z,100876.41
2023-02-05T23:16:34.885Z,100877.44
2023-02-05T23:19:03.720Z,100881.69
2023-02-05T23:21:32.503Z,100880.69
2023-02-05T23:24:00.524Z,100887.25
2023-02-05T23:26:29.661Z,100889.53
2023-02-05T23:28:59.073Z,100892.53
2023-02-05T23:31:27.206Z,100885.53
2023-02-05T23:33:55.211Z,100886.41
2023-02-05T23:36:23.205Z,100888.25
2023-02-05T23:38:51.364Z,100885.63
2023-02-05T23:41:35.534Z,100886.41
2023-02-05T23:44:06.978Z,100892.53
2023-02-05T23:46:35.273Z,100892.09
2023-02-05T23:49:03.249Z,100893.81
2023-02-05T23:51:31.224Z,100892.28
2023-02-05T23:53:59.194Z,100898.22
2023-02-05T23:56:27.106Z,100909.69
2023-02-05T23:58:55.081Z,100897.34
